sensor_id;sensor_type;location;lat;lon;timestamp;temperature;humidity
43346;DHT22;28937;51.160;4.146;2022-07-22T00:00:01;21.50;87.50
43346;DHT22;28937;51.160;4.146;2022-07-22T00:02:26;21.50;87.70
43346;DHT22;28937;51.160;4.146;2022-07-22T00:04:52;21.50;87.30
43346;DHT22;28937;51.160;4.146;2022-07-22T00:07:17;21.50;87.80
43346;DHT22;28937;51.160;4.146;2022-07-22T00:09:43;21.50;87.50
43346;DHT22;28937;51.160;4.146;2022-07-22T00:12:10;21.50;87.70
43346;DHT22;28937;51.160;4.146;2022-07-22T00:14:36;21.40;87.50
43346;DHT22;28937;51.160;4.146;2022-07-22T00:17:02;21.40;87.50
43346;DHT22;28937;51.160;4.146;2022-07-22T00:19:27;21.40;87.90
43346;DHT22;28937;51.160;4.146;2022-07-22T00:21:53;21.50;87.80
43346;DHT22;28937;51.160;4.146;2022-07-22T00:24:20;21.40;88.20
43346;DHT22;28937;51.160;4.146;2022-07-22T00:26:46;21.40;87.80
43346;DHT22;28937;51.160;4.146;2022-07-22T00:29:11;21.40;88.10
43346;DHT22;28937;51.160;4.146;2022-07-22T00:31:37;21.40;88.20
43346;DHT22;28937;51.160;4.146;2022-07-22T00:34:03;21.30;88.30
43346;DHT22;28937;51.160;4.146;2022-07-22T00:36:30;21.30;88.20
43346;DHT22;28937;51.160;4.146;2022-07-22T00:38:56;21.30;88.10
43346;DHT22;28937;51.160;4.146;2022-07-22T00:41:22;21.30;88.20
43346;DHT22;28937;51.160;4.146;2022-07-22T00:43:58;21.30;88.10
43346;DHT22;28937;51.160;4.146;2022-07-22T00:46:25;21.20;88.30
43346;DHT22;28937;51.160;4.146;2022-07-22T00:48:51;21.30;88.40
43346;DHT22;28937;51.160;4.146;2022-07-22T00:51:18;21.30;88.20
43346;DHT22;28937;51.160;4.146;2022-07-22T00:53:44;21.20;88.40
43346;DHT22;28937;51.160;4.146;2022-07-22T00:56:10;21.20;88.40
43346;DHT22;28937;51.160;4.146;2022-07-22T00:58:36;21.20;88.30
43346;DHT22;28937;51.160;4.146;2022-07-22T01:01:02;21.10;88.40
43346;DHT22;28937;51.160;4.146;2022-07-22T01:03:28;21.10;88.30
43346;DHT22;28937;51.160;4.146;2022-07-22T01:05:54;21.10;88.40
43346;DHT22;28937;51.160;4.146;2022-07-22T01:08:19;21.10;88.70
43346;DHT22;28937;51.160;4.146;2022-07-22T01:10:45;21.00;88.70
43346;DHT22;28937;51.160;4.146;2022-07-22T01:13:11;21.00;88.70
43346;DHT22;28937;51.160;4.146;2022-07-22T01:15:36;21.00;88.50
43346;DHT22;28937;51.160;4.146;2022-07-22T01:18:02;21.00;88.20
43346;DHT22;28937;51.160;4.146;2022-07-22T01:20:27;21.00;88.10
43346;DHT22;28937;51.160;4.146;2022-07-22T01:22:53;21.00;88.40
43346;DHT22;28937;51.160;4.146;2022-07-22T01:25:19;21.00;88.60
43346;DHT22;28937;51.160;4.146;2022-07-22T01:27:47;20.90;88.80
43346;DHT22;28937;51.160;4.146;2022-07-22T01:30:13;21.00;88.80
43346;DHT22;28937;51.160;4.146;2022-07-22T01:32:38;21.00;88.70
43346;DHT22;28937;51.160;4.146;2022-07-22T01:35:04;20.90;88.50
43346;DHT22;28937;51.160;4.146;2022-07-22T01:37:33;20.90;88.50
43346;DHT22;28937;51.160;4.146;2022-07-22T01:39:59;21.00;88.70
43346;DHT22;28937;51.160;4.146;2022-07-22T01:42:24;20.90;88.80
43346;DHT22;28937;51.160;4.146;2022-07-22T01:44:50;20.90;88.80
43346;DHT22;28937;51.160;4.146;2022-07-22T01:47:16;20.90;89.30
43346;DHT22;28937;51.160;4.146;2022-07-22T01:49:42;20.90;89.30
43346;DHT22;28937;51.160;4.146;2022-07-22T01:52:07;20.90;89.30
43346;DHT22;28937;51.160;4.146;2022-07-22T01:54:33;20.90;89.30
43346;DHT22;28937;51.160;4.146;2022-07-22T01:56:58;20.90;89.40
43346;DHT22;28937;51.160;4.146;2022-07-22T01:59:24;20.90;89.30
43346;DHT22;28937;51.160;4.146;2022-07-22T02:01:50;20.90;89.30
43346;DHT22;28937;51.160;4.146;2022-07-22T02:04:15;20.90;89.40
43346;DHT22;28937;51.160;4.146;2022-07-22T02:06:41;20.90;89.40
43346;DHT22;28937;51.160;4.146;2022-07-22T02:09:07;20.80;89.30
43346;DHT22;28937;51.160;4.146;2022-07-22T02:11:33;20.80;89.40
43346;DHT22;28937;51.160;4.146;2022-07-22T02:13:59;20.80;89.30
43346;DHT22;28937;51.160;4.146;2022-07-22T02:16:24;20.80;89.40
43346;DHT22;28937;51.160;4.146;2022-07-22T02:18:50;20.80;89.40
43346;DHT22;28937;51.160;4.146;2022-07-22T02:21:16;20.80;89.50
43346;DHT22;28937;51.160;4.146;2022-07-22T02:23:42;20.80;89.80
43346;DHT22;28937;51.160;4.146;2022-07-22T02:26:07;20.80;89.80
43346;DHT22;28937;51.160;4.146;2022-07-22T02:28:33;20.70;89.90
43346;DHT22;28937;51.160;4.146;2022-07-22T02:30:59;20.70;90.00
43346;DHT22;28937;51.160;4.146;2022-07-22T02:33:24;20.70;89.90
43346;DHT22;28937;51.160;4.146;2022-07-22T02:35:50;20.70;89.90
43346;DHT22;28937;51.160;4.146;2022-07-22T02:38:15;20.70;90.00
43346;DHT22;28937;51.160;4.146;2022-07-22T02:40:41;20.70;90.00
43346;DHT22;28937;51.160;4.146;2022-07-22T02:43:06;20.60;89.90
43346;DHT22;28937;51.160;4.146;2022-07-22T02:45:32;20.70;90.00
43346;DHT22;28937;51.160;4.146;2022-07-22T02:47:58;20.60;90.00
43346;DHT22;28937;51.160;4.146;2022-07-22T02:50:25;20.70;90.00
43346;DHT22;28937;51.160;4.146;2022-07-22T02:52:52;20.60;89.90
43346;DHT22;28937;51.160;4.146;2022-07-22T02:55:19;20.60;89.80
43346;DHT22;28937;51.160;4.146;2022-07-22T02:57:44;20.60;90.00
43346;DHT22;28937;51.160;4.146;2022-07-22T03:00:11;20.60;89.80
43346;DHT22;28937;51.160;4.146;2022-07-22T03:02:38;20.50;90.00
43346;DHT22;28937;51.160;4.146;2022-07-22T03:05:04;20.60;90.00
43346;DHT22;28937;51.160;4.146;2022-07-22T03:07:30;20.60;90.00
43346;DHT22;28937;51.160;4.146;2022-07-22T03:09:56;20.60;90.00
43346;DHT22;28937;51.160;4.146;2022-07-22T03:12:22;20.50;90.00
43346;DHT22;28937;51.160;4.146;2022-07-22T03:14:47;20.50;90.00
43346;DHT22;28937;51.160;4.146;2022-07-22T03:17:13;20.50;90.10
43346;DHT22;28937;51.160;4.146;2022-07-22T03:19:38;20.50;90.10
43346;DHT22;28937;51.160;4.146;2022-07-22T03:22:04;20.40;90.00
43346;DHT22;28937;51.160;4.146;2022-07-22T03:24:29;20.50;90.00
43346;DHT22;28937;51.160;4.146;2022-07-22T03:26:55;20.40;90.00
43346;DHT22;28937;51.160;4.146;2022-07-22T03:29:20;20.50;90.00
43346;DHT22;28937;51.160;4.146;2022-07-22T03:31:46;20.50;89.90
43346;DHT22;28937;51.160;4.146;2022-07-22T03:34:11;20.40;89.80
43346;DHT22;28937;51.160;4.146;2022-07-22T03:36:37;20.40;90.00
43346;DHT22;28937;51.160;4.146;2022-07-22T03:39:03;20.40;90.00
43346;DHT22;28937;51.160;4.146;2022-07-22T03:41:28;20.40;90.00
43346;DHT22;28937;51.160;4.146;2022-07-22T03:43:54;20.30;89.80
43346;DHT22;28937;51.160;4.146;2022-07-22T03:46:19;20.30;90.00
43346;DHT22;28937;51.160;4.146;2022-07-22T03:48:45;20.30;90.00
43346;DHT22;28937;51.160;4.146;2022-07-22T03:51:11;20.30;90.00
43346;DHT22;28937;51.160;4.146;2022-07-22T03:53:36;20.30;90.00
43346;DHT22;28937;51.160;4.146;2022-07-22T03:56:02;20.30;89.90
43346;DHT22;28937;51.160;4.146;2022-07-22T03:58:27;20.30;89.80
43346;DHT22;28937;51.160;4.146;2022-07-22T04:00:53;20.30;89.90
43346;DHT22;28937;51.160;4.146;2022-07-22T04:03:19;20.30;89.60
43346;DHT22;28937;51.160;4.146;2022-07-22T04:05:45;20.20;89.90
43346;DHT22;28937;51.160;4.146;2022-07-22T04:08:12;20.20;89.90
43346;DHT22;28937;51.160;4.146;2022-07-22T04:10:37;20.20;89.70
43346;DHT22;28937;51.160;4.146;2022-07-22T04:13:03;20.20;89.90
43346;DHT22;28937;51.160;4.146;2022-07-22T04:15:29;20.20;90.00
43346;DHT22;28937;51.160;4.146;2022-07-22T04:17:54;20.20;90.00
43346;DHT22;28937;51.160;4.146;2022-07-22T04:20:20;20.20;90.10
43346;DHT22;28937;51.160;4.146;2022-07-22T04:22:46;20.20;90.00
43346;DHT22;28937;51.160;4.146;2022-07-22T04:25:11;20.20;90.10
43346;DHT22;28937;51.160;4.146;2022-07-22T04:27:37;20.20;90.10
43346;DHT22;28937;51.160;4.146;2022-07-22T04:30:03;20.20;90.30
43346;DHT22;28937;51.160;4.146;2022-07-22T04:32:29;20.20;90.40
43346;DHT22;28937;51.160;4.146;2022-07-22T04:34:54;20.20;90.40
43346;DHT22;28937;51.160;4.146;2022-07-22T04:37:20;20.20;90.40
43346;DHT22;28937;51.160;4.146;2022-07-22T04:39:45;20.20;90.50
43346;DHT22;28937;51.160;4.146;2022-07-22T04:42:11;20.20;90.50
43346;DHT22;28937;51.160;4.146;2022-07-22T04:44:36;20.30;90.70
43346;DHT22;28937;51.160;4.146;2022-07-22T04:47:02;20.40;90.70
43346;DHT22;28937;51.160;4.146;2022-07-22T04:49:28;20.40;90.60
43346;DHT22;28937;51.160;4.146;2022-07-22T04:51:53;20.40;90.70
43346;DHT22;28937;51.160;4.146;2022-07-22T04:54:19;20.40;90.70
43346;DHT22;28937;51.160;4.146;2022-07-22T04:56:44;20.40;90.80
43346;DHT22;28937;51.160;4.146;2022-07-22T04:59:10;20.40;90.90
43346;DHT22;28937;51.160;4.146;2022-07-22T05:01:36;20.40;90.80
43346;DHT22;28937;51.160;4.146;2022-07-22T05:04:02;20.40;90.90
43346;DHT22;28937;51.160;4.146;2022-07-22T05:06:28;20.50;91.00
43346;DHT22;28937;51.160;4.146;2022-07-22T05:08:53;20.50;91.10
43346;DHT22;28937;51.160;4.146;2022-07-22T05:11:19;20.50;91.40
43346;DHT22;28937;51.160;4.146;2022-07-22T05:13:45;20.50;91.10
43346;DHT22;28937;51.160;4.146;2022-07-22T05:16:10;20.50;91.20
43346;DHT22;28937;51.160;4.146;2022-07-22T05:18:36;20.50;91.30
43346;DHT22;28937;51.160;4.146;2022-07-22T05:21:04;20.60;91.30
43346;DHT22;28937;51.160;4.146;2022-07-22T05:23:30;20.50;91.30
43346;DHT22;28937;51.160;4.146;2022-07-22T05:25:55;20.60;91.40
43346;DHT22;28937;51.160;4.146;2022-07-22T05:28:21;20.70;91.30
43346;DHT22;28937;51.160;4.146;2022-07-22T05:30:47;20.70;91.20
43346;DHT22;28937;51.160;4.146;2022-07-22T05:33:12;20.80;91.10
43346;DHT22;28937;51.160;4.146;2022-07-22T05:35:38;20.80;90.80
43346;DHT22;28937;51.160;4.146;2022-07-22T05:38:03;20.80;90.40
43346;DHT22;28937;51.160;4.146;2022-07-22T05:40:31;20.80;90.40
43346;DHT22;28937;51.160;4.146;2022-07-22T05:42:57;20.90;90.40
43346;DHT22;28937;51.160;4.146;2022-07-22T05:45:23;20.90;90.50
43346;DHT22;28937;51.160;4.146;2022-07-22T05:47:48;20.90;90.40
43346;DHT22;28937;51.160;4.146;2022-07-22T05:50:14;21.00;90.50
43346;DHT22;28937;51.160;4.146;2022-07-22T05:52:39;21.00;90.40
43346;DHT22;28937;51.160;4.146;2022-07-22T05:55:06;21.10;90.30
43346;DHT22;28937;51.160;4.146;2022-07-22T05:57:32;21.10;90.40
43346;DHT22;28937;51.160;4.146;2022-07-22T05:59:58;21.10;90.30
43346;DHT22;28937;51.160;4.146;2022-07-22T06:02:23;21.10;90.40
43346;DHT22;28937;51.160;4.146;2022-07-22T06:04:49;21.10;90.80
43346;DHT22;28937;51.160;4.146;2022-07-22T06:07:15;21.20;90.60
43346;DHT22;28937;51.160;4.146;2022-07-22T06:09:41;21.20;90.20
43346;DHT22;28937;51.160;4.146;2022-07-22T06:12:06;21.20;90.10
43346;DHT22;28937;51.160;4.146;2022-07-22T06:14:32;21.30;89.90
43346;DHT22;28937;51.160;4.146;2022-07-22T06:16:58;21.30;88.90
43346;DHT22;28937;51.160;4.146;2022-07-22T06:19:23;21.50;89.20
43346;DHT22;28937;51.160;4.146;2022-07-22T06:21:50;21.50;86.70
43346;DHT22;28937;51.160;4.146;2022-07-22T06:24:16;21.60;85.80
43346;DHT22;28937;51.160;4.146;2022-07-22T06:26:41;21.60;85.00
43346;DHT22;28937;51.160;4.146;2022-07-22T06:29:07;21.70;84.60
43346;DHT22;28937;51.160;4.146;2022-07-22T06:31:33;21.70;84.20
43346;DHT22;28937;51.160;4.146;2022-07-22T06:33:58;21.70;83.80
43346;DHT22;28937;51.160;4.146;2022-07-22T06:36:24;21.70;83.80
43346;DHT22;28937;51.160;4.146;2022-07-22T06:38:50;21.70;84.50
43346;DHT22;28937;51.160;4.146;2022-07-22T06:41:15;21.80;83.20
43346;DHT22;28937;51.160;4.146;2022-07-22T06:43:45;21.80;83.70
43346;DHT22;28937;51.160;4.146;2022-07-22T06:46:10;21.80;83.80
43346;DHT22;28937;51.160;4.146;2022-07-22T06:48:36;21.80;82.90
43346;DHT22;28937;51.160;4.146;2022-07-22T06:51:02;21.90;82.70
43346;DHT22;28937;51.160;4.146;2022-07-22T06:53:28;21.90;81.80
43346;DHT22;28937;51.160;4.146;2022-07-22T06:55:53;21.90;82.80
43346;DHT22;28937;51.160;4.146;2022-07-22T06:58:19;21.90;81.50
43346;DHT22;28937;51.160;4.146;2022-07-22T07:00:45;22.00;81.30
43346;DHT22;28937;51.160;4.146;2022-07-22T07:03:11;22.00;81.30
43346;DHT22;28937;51.160;4.146;2022-07-22T07:05:36;22.00;81.10
43346;DHT22;28937;51.160;4.146;2022-07-22T07:08:02;21.90;83.10
43346;DHT22;28937;51.160;4.146;2022-07-22T07:10:27;22.00;83.40
43346;DHT22;28937;51.160;4.146;2022-07-22T07:12:57;22.20;81.50
43346;DHT22;28937;51.160;4.146;2022-07-22T07:15:26;22.20;81.40
43346;DHT22;28937;51.160;4.146;2022-07-22T07:17:53;22.20;81.80
43346;DHT22;28937;51.160;4.146;2022-07-22T07:20:19;22.20;81.80
43346;DHT22;28937;51.160;4.146;2022-07-22T07:22:45;22.20;81.70
43346;DHT22;28937;51.160;4.146;2022-07-22T07:25:11;22.20;80.80
43346;DHT22;28937;51.160;4.146;2022-07-22T07:27:36;22.30;80.90
43346;DHT22;28937;51.160;4.146;2022-07-22T07:30:06;22.30;80.80
43346;DHT22;28937;51.160;4.146;2022-07-22T07:32:31;22.40;80.70
43346;DHT22;28937;51.160;4.146;2022-07-22T07:34:57;22.30;81.20
43346;DHT22;28937;51.160;4.146;2022-07-22T07:37:23;22.40;80.70
43346;DHT22;28937;51.160;4.146;2022-07-22T07:39:48;22.40;79.70
43346;DHT22;28937;51.160;4.146;2022-07-22T07:42:14;22.40;81.10
43346;DHT22;28937;51.160;4.146;2022-07-22T07:44:40;22.40;79.70
43346;DHT22;28937;51.160;4.146;2022-07-22T07:47:05;22.40;80.50
43346;DHT22;28937;51.160;4.146;2022-07-22T07:49:31;22.40;79.40
43346;DHT22;28937;51.160;4.146;2022-07-22T07:51:56;22.40;79.40
43346;DHT22;28937;51.160;4.146;2022-07-22T07:54:22;22.30;79.20
43346;DHT22;28937;51.160;4.146;2022-07-22T07:56:48;22.30;79.50
43346;DHT22;28937;51.160;4.146;2022-07-22T07:59:14;22.30;79.60
43346;DHT22;28937;51.160;4.146;2022-07-22T08:01:40;22.40;80.10
43346;DHT22;28937;51.160;4.146;2022-07-22T08:04:06;22.50;80.30
43346;DHT22;28937;51.160;4.146;2022-07-22T08:06:31;22.60;79.60
43346;DHT22;28937;51.160;4.146;2022-07-22T08:08:57;22.60;79.10
43346;DHT22;28937;51.160;4.146;2022-07-22T08:11:22;22.60;79.20
43346;DHT22;28937;51.160;4.146;2022-07-22T08:13:48;22.60;78.20
43346;DHT22;28937;51.160;4.146;2022-07-22T08:16:14;22.60;78.60
43346;DHT22;28937;51.160;4.146;2022-07-22T08:18:40;22.60;79.70
43346;DHT22;28937;51.160;4.146;2022-07-22T08:21:05;22.70;81.00
43346;DHT22;28937;51.160;4.146;2022-07-22T08:23:32;22.70;80.00
43346;DHT22;28937;51.160;4.146;2022-07-22T08:25:57;22.80;78.40
43346;DHT22;28937;51.160;4.146;2022-07-22T08:28:23;22.90;77.30
43346;DHT22;28937;51.160;4.146;2022-07-22T08:30:49;23.00;77.00
43346;DHT22;28937;51.160;4.146;2022-07-22T08:33:14;23.00;78.00
43346;DHT22;28937;51.160;4.146;2022-07-22T08:35:40;23.20;76.30
43346;DHT22;28937;51.160;4.146;2022-07-22T08:38:06;23.20;75.60
43346;DHT22;28937;51.160;4.146;2022-07-22T08:40:31;23.30;75.90
43346;DHT22;28937;51.160;4.146;2022-07-22T08:42:57;23.20;75.30
43346;DHT22;28937;51.160;4.146;2022-07-22T08:45:26;23.20;75.90
43346;DHT22;28937;51.160;4.146;2022-07-22T08:47:53;23.20;74.40
43346;DHT22;28937;51.160;4.146;2022-07-22T08:50:19;23.30;74.80
43346;DHT22;28937;51.160;4.146;2022-07-22T08:52:45;23.30;74.50
43346;DHT22;28937;51.160;4.146;2022-07-22T08:55:10;23.40;74.70
43346;DHT22;28937;51.160;4.146;2022-07-22T08:57:36;23.40;76.50
43346;DHT22;28937;51.160;4.146;2022-07-22T09:00:17;23.40;75.00
43346;DHT22;28937;51.160;4.146;2022-07-22T09:02:43;23.40;74.40
43346;DHT22;28937;51.160;4.146;2022-07-22T09:05:11;23.50;74.40
43346;DHT22;28937;51.160;4.146;2022-07-22T09:07:42;23.60;73.50
43346;DHT22;28937;51.160;4.146;2022-07-22T09:10:13;23.60;73.90
43346;DHT22;28937;51.160;4.146;2022-07-22T09:12:58;23.70;73.20
43346;DHT22;28937;51.160;4.146;2022-07-22T09:15:29;23.60;74.30
43346;DHT22;28937;51.160;4.146;2022-07-22T09:17:57;23.70;72.90
43346;DHT22;28937;51.160;4.146;2022-07-22T09:20:23;23.70;73.00
43346;DHT22;28937;51.160;4.146;2022-07-22T09:22:50;23.70;73.00
43346;DHT22;28937;51.160;4.146;2022-07-22T09:25:34;23.60;73.10
43346;DHT22;28937;51.160;4.146;2022-07-22T09:30:36;23.50;75.40
43346;DHT22;28937;51.160;4.146;2022-07-22T09:33:03;23.60;75.00
43346;DHT22;28937;51.160;4.146;2022-07-22T09:35:29;23.70;73.90
43346;DHT22;28937;51.160;4.146;2022-07-22T09:38:03;23.80;73.30
43346;DHT22;28937;51.160;4.146;2022-07-22T09:40:32;23.70;73.30
43346;DHT22;28937;51.160;4.146;2022-07-22T09:43:00;23.50;73.00
43346;DHT22;28937;51.160;4.146;2022-07-22T09:45:28;23.80;73.90
43346;DHT22;28937;51.160;4.146;2022-07-22T09:47:55;22.90;73.90
43346;DHT22;28937;51.160;4.146;2022-07-22T09:50:27;22.70;75.10
43346;DHT22;28937;51.160;4.146;2022-07-22T09:52:55;22.50;75.50
43346;DHT22;28937;51.160;4.146;2022-07-22T09:55:22;22.50;75.00
43346;DHT22;28937;51.160;4.146;2022-07-22T09:57:50;22.80;75.40
43346;DHT22;28937;51.160;4.146;2022-07-22T10:00:19;22.80;74.90
43346;DHT22;28937;51.160;4.146;2022-07-22T10:02:48;23.00;75.10
43346;DHT22;28937;51.160;4.146;2022-07-22T10:05:15;22.80;73.90
43346;DHT22;28937;51.160;4.146;2022-07-22T10:07:42;22.70;75.90
43346;DHT22;28937;51.160;4.146;2022-07-22T10:10:10;23.00;75.10
43346;DHT22;28937;51.160;4.146;2022-07-22T10:12:36;22.80;74.30
43346;DHT22;28937;51.160;4.146;2022-07-22T10:15:03;22.60;75.90
43346;DHT22;28937;51.160;4.146;2022-07-22T10:17:30;22.80;76.20
43346;DHT22;28937;51.160;4.146;2022-07-22T10:19:56;23.00;74.50
43346;DHT22;28937;51.160;4.146;2022-07-22T10:23:02;22.90;73.60
43346;DHT22;28937;51.160;4.146;2022-07-22T10:25:31;22.90;75.00
43346;DHT22;28937;51.160;4.146;2022-07-22T10:28:03;23.00;74.80
43346;DHT22;28937;51.160;4.146;2022-07-22T10:30:30;23.00;73.30
43346;DHT22;28937;51.160;4.146;2022-07-22T10:33:06;22.90;73.70
43346;DHT22;28937;51.160;4.146;2022-07-22T10:35:35;23.00;73.30
43346;DHT22;28937;51.160;4.146;2022-07-22T10:38:03;22.70;74.40
43346;DHT22;28937;51.160;4.146;2022-07-22T10:40:33;22.80;74.80
43346;DHT22;28937;51.160;4.146;2022-07-22T10:43:10;22.70;74.50
43346;DHT22;28937;51.160;4.146;2022-07-22T10:46:00;22.60;75.10
43346;DHT22;28937;51.160;4.146;2022-07-22T10:56:19;22.60;76.60
43346;DHT22;28937;51.160;4.146;2022-07-22T10:58:47;22.70;76.10
43346;DHT22;28937;51.160;4.146;2022-07-22T11:01:15;22.70;75.60
43346;DHT22;28937;51.160;4.146;2022-07-22T11:03:43;22.60;76.30
43346;DHT22;28937;51.160;4.146;2022-07-22T11:08:39;22.70;76.00
43346;DHT22;28937;51.160;4.146;2022-07-22T11:11:05;22.90;78.90
43346;DHT22;28937;51.160;4.146;2022-07-22T11:13:38;23.20;79.70
43346;DHT22;28937;51.160;4.146;2022-07-22T11:16:33;23.30;75.20
43346;DHT22;28937;51.160;4.146;2022-07-22T11:19:01;22.90;74.90
43346;DHT22;28937;51.160;4.146;2022-07-22T11:21:29;23.00;75.80
43346;DHT22;28937;51.160;4.146;2022-07-22T11:23:57;22.80;75.90
43346;DHT22;28937;51.160;4.146;2022-07-22T11:28:59;22.70;77.20
43346;DHT22;28937;51.160;4.146;2022-07-22T11:31:25;22.90;76.70
43346;DHT22;28937;51.160;4.146;2022-07-22T11:33:51;22.80;76.50
43346;DHT22;28937;51.160;4.146;2022-07-22T11:36:16;23.10;79.20
43346;DHT22;28937;51.160;4.146;2022-07-22T11:38:48;23.00;75.90
43346;DHT22;28937;51.160;4.146;2022-07-22T11:41:15;23.10;75.70
43346;DHT22;28937;51.160;4.146;2022-07-22T11:43:46;23.00;75.40
43346;DHT22;28937;51.160;4.146;2022-07-22T11:46:14;23.10;76.00
43346;DHT22;28937;51.160;4.146;2022-07-22T11:48:41;23.10;76.00
43346;DHT22;28937;51.160;4.146;2022-07-22T11:51:09;23.20;76.00
43346;DHT22;28937;51.160;4.146;2022-07-22T11:53:39;23.30;76.80
43346;DHT22;28937;51.160;4.146;2022-07-22T11:56:06;23.50;77.00
43346;DHT22;28937;51.160;4.146;2022-07-22T12:01:11;23.80;74.50
43346;DHT22;28937;51.160;4.146;2022-07-22T12:03:37;23.90;73.40
43346;DHT22;28937;51.160;4.146;2022-07-22T12:06:05;24.00;72.90
43346;DHT22;28937;51.160;4.146;2022-07-22T12:08:32;23.90;73.30
43346;DHT22;28937;51.160;4.146;2022-07-22T12:10:59;24.00;72.60
43346;DHT22;28937;51.160;4.146;2022-07-22T12:13:29;24.10;72.70
43346;DHT22;28937;51.160;4.146;2022-07-22T12:15:55;24.10;73.50
43346;DHT22;28937;51.160;4.146;2022-07-22T12:18:27;24.10;72.20
43346;DHT22;28937;51.160;4.146;2022-07-22T12:20:54;24.20;72.00
43346;DHT22;28937;51.160;4.146;2022-07-22T12:23:21;24.20;72.30
43346;DHT22;28937;51.160;4.146;2022-07-22T12:25:55;24.30;72.40
43346;DHT22;28937;51.160;4.146;2022-07-22T12:28:21;24.40;72.20
43346;DHT22;28937;51.160;4.146;2022-07-22T12:30:48;24.40;71.10
43346;DHT22;28937;51.160;4.146;2022-07-22T12:33:15;24.40;71.00
43346;DHT22;28937;51.160;4.146;2022-07-22T12:35:42;24.40;71.40
43346;DHT22;28937;51.160;4.146;2022-07-22T12:38:08;24.40;71.60
43346;DHT22;28937;51.160;4.146;2022-07-22T12:40:35;24.40;72.00
43346;DHT22;28937;51.160;4.146;2022-07-22T12:43:06;24.40;72.20
43346;DHT22;28937;51.160;4.146;2022-07-22T12:45:37;24.40;70.80
43346;DHT22;28937;51.160;4.146;2022-07-22T12:50:30;24.50;70.50
43346;DHT22;28937;51.160;4.146;2022-07-22T12:52:59;24.40;70.50
43346;DHT22;28937;51.160;4.146;2022-07-22T12:55:26;24.50;70.30
43346;DHT22;28937;51.160;4.146;2022-07-22T12:57:52;24.60;70.40
43346;DHT22;28937;51.160;4.146;2022-07-22T13:00:23;24.60;70.80
43346;DHT22;28937;51.160;4.146;2022-07-22T13:02:50;24.70;70.60
43346;DHT22;28937;51.160;4.146;2022-07-22T13:05:16;24.70;70.70
43346;DHT22;28937;51.160;4.146;2022-07-22T13:07:42;24.60;70.00
43346;DHT22;28937;51.160;4.146;2022-07-22T13:10:08;24.60;70.20
43346;DHT22;28937;51.160;4.146;2022-07-22T13:12:34;24.70;70.30
43346;DHT22;28937;51.160;4.146;2022-07-22T13:15:00;24.70;70.40
43346;DHT22;28937;51.160;4.146;2022-07-22T13:17:25;24.70;70.00
43346;DHT22;28937;51.160;4.146;2022-07-22T13:19:51;24.80;69.80
43346;DHT22;28937;51.160;4.146;2022-07-22T13:22:16;24.80;70.10
43346;DHT22;28937;51.160;4.146;2022-07-22T13:24:42;24.80;69.70
43346;DHT22;28937;51.160;4.146;2022-07-22T13:27:08;24.80;69.60
43346;DHT22;28937;51.160;4.146;2022-07-22T13:29:33;24.80;69.60
43346;DHT22;28937;51.160;4.146;2022-07-22T13:31:59;24.80;70.20
43346;DHT22;28937;51.160;4.146;2022-07-22T13:34:24;24.90;69.90
43346;DHT22;28937;51.160;4.146;2022-07-22T13:36:50;24.80;70.50
43346;DHT22;28937;51.160;4.146;2022-07-22T13:39:17;24.80;70.00
43346;DHT22;28937;51.160;4.146;2022-07-22T13:41:43;24.80;69.90
43346;DHT22;28937;51.160;4.146;2022-07-22T13:44:08;24.90;69.90
43346;DHT22;28937;51.160;4.146;2022-07-22T13:46:37;24.90;70.00
43346;DHT22;28937;51.160;4.146;2022-07-22T13:49:03;24.80;70.00
43346;DHT22;28937;51.160;4.146;2022-07-22T13:51:30;24.80;70.20
43346;DHT22;28937;51.160;4.146;2022-07-22T13:53:56;24.80;69.80
43346;DHT22;28937;51.160;4.146;2022-07-22T13:56:22;24.80;70.30
43346;DHT22;28937;51.160;4.146;2022-07-22T13:58:51;24.90;69.80
43346;DHT22;28937;51.160;4.146;2022-07-22T14:01:17;24.90;70.90
43346;DHT22;28937;51.160;4.146;2022-07-22T14:03:42;24.90;69.80
43346;DHT22;28937;51.160;4.146;2022-07-22T14:06:08;24.80;69.80
43346;DHT22;28937;51.160;4.146;2022-07-22T14:08:35;24.80;70.80
43346;DHT22;28937;51.160;4.146;2022-07-22T14:11:01;24.80;69.90
43346;DHT22;28937;51.160;4.146;2022-07-22T14:13:27;24.80;69.60
43346;DHT22;28937;51.160;4.146;2022-07-22T14:15:57;24.90;69.70
43346;DHT22;28937;51.160;4.146;2022-07-22T14:18:42;24.90;70.00
43346;DHT22;28937;51.160;4.146;2022-07-22T14:21:08;24.90;70.00
43346;DHT22;28937;51.160;4.146;2022-07-22T14:23:33;25.00;70.30
43346;DHT22;28937;51.160;4.146;2022-07-22T14:25:59;24.90;71.00
43346;DHT22;28937;51.160;4.146;2022-07-22T14:28:24;24.80;72.00
43346;DHT22;28937;51.160;4.146;2022-07-22T14:30:50;24.90;72.20
43346;DHT22;28937;51.160;4.146;2022-07-22T14:33:16;24.90;72.30
43346;DHT22;28937;51.160;4.146;2022-07-22T14:35:41;24.90;72.30
43346;DHT22;28937;51.160;4.146;2022-07-22T14:38:07;25.00;72.40
43346;DHT22;28937;51.160;4.146;2022-07-22T14:40:32;25.00;71.50
43346;DHT22;28937;51.160;4.146;2022-07-22T14:42:58;25.10;71.70
43346;DHT22;28937;51.160;4.146;2022-07-22T14:45:24;25.00;72.20
43346;DHT22;28937;51.160;4.146;2022-07-22T14:47:49;24.90;72.50
43346;DHT22;28937;51.160;4.146;2022-07-22T14:50:15;25.00;72.60
43346;DHT22;28937;51.160;4.146;2022-07-22T14:52:40;25.00;72.70
43346;DHT22;28937;51.160;4.146;2022-07-22T14:55:06;25.00;73.10
43346;DHT22;28937;51.160;4.146;2022-07-22T14:57:32;25.10;73.00
43346;DHT22;28937;51.160;4.146;2022-07-22T14:59:57;25.10;72.80
43346;DHT22;28937;51.160;4.146;2022-07-22T15:02:23;25.10;73.10
43346;DHT22;28937;51.160;4.146;2022-07-22T15:04:51;25.10;73.00
43346;DHT22;28937;51.160;4.146;2022-07-22T15:07:16;25.10;73.30
43346;DHT22;28937;51.160;4.146;2022-07-22T15:09:48;25.10;72.90
43346;DHT22;28937;51.160;4.146;2022-07-22T15:12:14;25.10;73.10
43346;DHT22;28937;51.160;4.146;2022-07-22T15:14:39;25.00;73.10
43346;DHT22;28937;51.160;4.146;2022-07-22T15:17:05;25.10;72.60
43346;DHT22;28937;51.160;4.146;2022-07-22T15:19:31;25.10;72.50
43346;DHT22;28937;51.160;4.146;2022-07-22T15:21:57;25.10;73.10
43346;DHT22;28937;51.160;4.146;2022-07-22T15:24:23;25.10;73.30
43346;DHT22;28937;51.160;4.146;2022-07-22T15:26:48;25.10;73.60
43346;DHT22;28937;51.160;4.146;2022-07-22T15:29:14;25.00;73.90
43346;DHT22;28937;51.160;4.146;2022-07-22T15:31:40;25.00;73.30
43346;DHT22;28937;51.160;4.146;2022-07-22T15:34:06;25.00;73.10
43346;DHT22;28937;51.160;4.146;2022-07-22T15:36:32;25.00;72.70
43346;DHT22;28937;51.160;4.146;2022-07-22T15:39:00;25.00;72.70
43346;DHT22;28937;51.160;4.146;2022-07-22T15:41:39;25.00;72.90
43346;DHT22;28937;51.160;4.146;2022-07-22T15:44:08;25.00;72.60
43346;DHT22;28937;51.160;4.146;2022-07-22T15:46:40;25.00;72.80